sensor_id;sensor_type;location;lat;lon;timestamp;P1;durP1;ratioP1;P2;durP2;ratioP2
6392;SDS011;3229;42.674;23.282;2022-11-11T00:01:10;25.73;;;18.60;;
6392;SDS011;3229;42.674;23.282;2022-11-11T00:03:41;26.27;;;18.77;;
6392;SDS011;3229;42.674;23.282;2022-11-11T00:06:09;25.73;;;18.73;;
6392;SDS011;3229;42.674;23.282;2022-11-11T00:08:37;24.43;;;17.73;;
6392;SDS011;3229;42.674;23.282;2022-11-11T00:11:05;23.33;;;17.37;;
6392;SDS011;3229;42.674;23.282;2022-11-11T00:13:34;24.73;;;18.30;;
6392;SDS011;3229;42.674;23.282;2022-11-11T00:16:03;22.97;;;17.13;;
6392;SDS011;3229;42.674;23.282;2022-11-11T00:18:30;22.83;;;17.73;;
6392;SDS011;3229;42.674;23.282;2022-11-11T00:21:16;26.30;;;17.80;;
6392;SDS011;3229;42.674;23.282;2022-11-11T00:24:07;24.60;;;17.80;;
6392;SDS011;3229;42.674;23.282;2022-11-11T00:27:03;21.43;;;16.57;;
6392;SDS011;3229;42.674;23.282;2022-11-11T00:29:30;20.87;;;16.73;;
6392;SDS011;3229;42.674;23.282;2022-11-11T00:31:58;24.07;;;17.33;;
6392;SDS011;3229;42.674;23.282;2022-11-11T00:34:42;22.27;;;16.67;;
6392;SDS011;3229;42.674;23.282;2022-11-11T00:37:30;24.17;;;17.37;;
6392;SDS011;3229;42.674;23.282;2022-11-11T00:39:57;21.43;;;17.03;;
6392;SDS011;3229;42.674;23.282;2022-11-11T00:42:24;24.07;;;17.50;;
6392;SDS011;3229;42.674;23.282;2022-11-11T00:44:51;24.93;;;17.60;;
6392;SDS011;3229;42.674;23.282;2022-11-11T00:47:18;24.17;;;17.30;;
6392;SDS011;3229;42.674;23.282;2022-11-11T00:50:03;23.70;;;18.10;;
6392;SDS011;3229;42.674;23.282;2022-11-11T00:52:50;25.43;;;17.47;;
6392;SDS011;3229;42.674;23.282;2022-11-11T00:55:17;19.07;;;15.90;;
6392;SDS011;3229;42.674;23.282;2022-11-11T00:57:45;19.97;;;16.03;;
6392;SDS011;3229;42.674;23.282;2022-11-11T01:00:14;23.53;;;16.50;;
6392;SDS011;3229;42.674;23.282;2022-11-11T01:02:41;22.60;;;16.53;;
6392;SDS011;3229;42.674;23.282;2022-11-11T01:05:08;23.03;;;17.60;;
6392;SDS011;3229;42.674;23.282;2022-11-11T01:07:35;23.30;;;16.60;;
6392;SDS011;3229;42.674;23.282;2022-11-11T01:10:03;26.67;;;18.50;;
6392;SDS011;3229;42.674;23.282;2022-11-11T01:12:31;21.63;;;17.30;;
6392;SDS011;3229;42.674;23.282;2022-11-11T01:14:58;26.27;;;17.73;;
6392;SDS011;3229;42.674;23.282;2022-11-11T01:17:25;23.33;;;17.57;;
6392;SDS011;3229;42.674;23.282;2022-11-11T01:19:51;22.93;;;16.60;;
6392;SDS011;3229;42.674;23.282;2022-11-11T01:22:18;22.10;;;16.47;;
6392;SDS011;3229;42.674;23.282;2022-11-11T01:24:45;24.30;;;16.77;;
6392;SDS011;3229;42.674;23.282;2022-11-11T01:27:13;22.33;;;17.17;;
6392;SDS011;3229;42.674;23.282;2022-11-11T01:29:40;25.37;;;17.57;;
6392;SDS011;3229;42.674;23.282;2022-11-11T01:32:07;21.20;;;16.87;;
6392;SDS011;3229;42.674;23.282;2022-11-11T01:34:34;24.53;;;17.53;;
6392;SDS011;3229;42.674;23.282;2022-11-11T01:37:01;23.70;;;16.47;;
6392;SDS011;3229;42.674;23.282;2022-11-11T01:39:28;22.00;;;16.33;;
6392;SDS011;3229;42.674;23.282;2022-11-11T01:41:55;23.30;;;17.73;;
6392;SDS011;3229;42.674;23.282;2022-11-11T01:44:41;23.80;;;16.57;;
6392;SDS011;3229;42.674;23.282;2022-11-11T01:47:12;22.60;;;16.90;;
6392;SDS011;3229;42.674;23.282;2022-11-11T01:49:41;22.50;;;17.10;;
6392;SDS011;3229;42.674;23.282;2022-11-11T01:52:16;21.77;;;16.93;;
6392;SDS011;3229;42.674;23.282;2022-11-11T01:54:45;19.93;;;16.87;;
6392;SDS011;3229;42.674;23.282;2022-11-11T01:57:17;21.53;;;16.80;;
6392;SDS011;3229;42.674;23.282;2022-11-11T01:59:50;24.77;;;18.07;;
6392;SDS011;3229;42.674;23.282;2022-11-11T02:02:25;25.33;;;18.50;;
6392;SDS011;3229;42.674;23.282;2022-11-11T02:04:58;21.93;;;16.90;;
6392;SDS011;3229;42.674;23.282;2022-11-11T02:07:45;22.03;;;17.10;;
6392;SDS011;3229;42.674;23.282;2022-11-11T02:10:14;25.40;;;17.90;;
6392;SDS011;3229;42.674;23.282;2022-11-11T02:12:43;23.00;;;17.07;;
6392;SDS011;3229;42.674;23.282;2022-11-11T02:15:29;24.97;;;18.40;;
6392;SDS011;3229;42.674;23.282;2022-11-11T02:17:55;23.83;;;17.50;;
6392;SDS011;3229;42.674;23.282;2022-11-11T02:20:23;25.43;;;18.63;;
6392;SDS011;3229;42.674;23.282;2022-11-11T02:22:53;23.63;;;17.50;;
6392;SDS011;3229;42.674;23.282;2022-11-11T02:25:28;26.47;;;19.73;;
6392;SDS011;3229;42.674;23.282;2022-11-11T02:27:58;26.73;;;19.37;;
6392;SDS011;3229;42.674;23.282;2022-11-11T02:30:29;24.30;;;18.07;;
6392;SDS011;3229;42.674;23.282;2022-11-11T02:32:56;24.87;;;17.57;;
6392;SDS011;3229;42.674;23.282;2022-11-11T02:35:24;26.07;;;18.80;;
6392;SDS011;3229;42.674;23.282;2022-11-11T02:37:55;25.73;;;19.60;;
6392;SDS011;3229;42.674;23.282;2022-11-11T02:40:25;26.07;;;19.30;;
6392;SDS011;3229;42.674;23.282;2022-11-11T02:42:57;26.23;;;19.40;;
6392;SDS011;3229;42.674;23.282;2022-11-11T02:45:23;24.37;;;18.87;;
6392;SDS011;3229;42.674;23.282;2022-11-11T02:47:50;27.10;;;18.80;;
6392;SDS011;3229;42.674;23.282;2022-11-11T02:50:18;26.57;;;18.37;;
6392;SDS011;3229;42.674;23.282;2022-11-11T02:52:45;25.60;;;18.87;;
6392;SDS011;3229;42.674;23.282;2022-11-11T02:55:12;31.03;;;19.80;;
6392;SDS011;3229;42.674;23.282;2022-11-11T02:57:41;25.70;;;17.80;;
6392;SDS011;3229;42.674;23.282;2022-11-11T03:00:08;25.50;;;18.07;;
6392;SDS011;3229;42.674;23.282;2022-11-11T03:02:36;23.10;;;18.03;;
6392;SDS011;3229;42.674;23.282;2022-11-11T03:05:03;24.47;;;18.20;;
6392;SDS011;3229;42.674;23.282;2022-11-11T03:07:30;23.43;;;17.57;;
6392;SDS011;3229;42.674;23.282;2022-11-11T03:09:57;27.23;;;18.10;;
6392;SDS011;3229;42.674;23.282;2022-11-11T03:12:24;26.20;;;18.43;;
6392;SDS011;3229;42.674;23.282;2022-11-11T03:14:53;25.37;;;18.00;;
6392;SDS011;3229;42.674;23.282;2022-11-11T03:17:20;24.03;;;18.80;;
6392;SDS011;3229;42.674;23.282;2022-11-11T03:20:04;25.23;;;18.33;;
6392;SDS011;3229;42.674;23.282;2022-11-11T03:22:58;23.33;;;18.37;;
6392;SDS011;3229;42.674;23.282;2022-11-11T03:25:25;26.33;;;19.63;;
6392;SDS011;3229;42.674;23.282;2022-11-11T03:28:04;22.53;;;18.07;;
6392;SDS011;3229;42.674;23.282;2022-11-11T03:30:33;24.90;;;17.20;;
6392;SDS011;3229;42.674;23.282;2022-11-11T03:33:01;21.37;;;16.60;;
6392;SDS011;3229;42.674;23.282;2022-11-11T03:35:28;21.93;;;17.17;;
6392;SDS011;3229;42.674;23.282;2022-11-11T03:37:56;22.77;;;17.50;;
6392;SDS011;3229;42.674;23.282;2022-11-11T03:40:49;24.67;;;18.50;;
6392;SDS011;3229;42.674;23.282;2022-11-11T03:43:18;23.87;;;17.70;;
6392;SDS011;3229;42.674;23.282;2022-11-11T03:45:48;22.37;;;17.93;;
6392;SDS011;3229;42.674;23.282;2022-11-11T03:48:16;21.60;;;16.87;;
6392;SDS011;3229;42.674;23.282;2022-11-11T03:50:43;23.57;;;17.40;;
6392;SDS011;3229;42.674;23.282;2022-11-11T03:53:12;22.90;;;17.57;;
6392;SDS011;3229;42.674;23.282;2022-11-11T03:55:40;22.70;;;17.50;;
6392;SDS011;3229;42.674;23.282;2022-11-11T03:58:07;21.50;;;17.30;;
6392;SDS011;3229;42.674;23.282;2022-11-11T04:00:37;22.73;;;17.10;;
6392;SDS011;3229;42.674;23.282;2022-11-11T04:03:06;23.33;;;16.97;;
6392;SDS011;3229;42.674;23.282;2022-11-11T04:05:53;27.33;;;18.90;;
6392;SDS011;3229;42.674;23.282;2022-11-11T04:08:37;23.20;;;17.60;;
6392;SDS011;3229;42.674;23.282;2022-11-11T04:11:22;23.10;;;18.20;;
6392;SDS011;3229;42.674;23.282;2022-11-11T04:13:52;21.97;;;17.27;;
6392;SDS011;3229;42.674;23.282;2022-11-11T04:16:39;22.70;;;17.87;;
6392;SDS011;3229;42.674;23.282;2022-11-11T04:19:07;20.13;;;16.83;;
6392;SDS011;3229;42.674;23.282;2022-11-11T04:21:52;25.20;;;17.80;;
6392;SDS011;3229;42.674;23.282;2022-11-11T04:24:19;22.47;;;17.40;;
6392;SDS011;3229;42.674;23.282;2022-11-11T04:27:05;21.07;;;17.77;;
6392;SDS011;3229;42.674;23.282;2022-11-11T04:29:34;22.00;;;17.13;;
6392;SDS011;3229;42.674;23.282;2022-11-11T04:32:00;19.97;;;17.30;;
6392;SDS011;3229;42.674;23.282;2022-11-11T04:34:50;24.57;;;17.17;;
6392;SDS011;3229;42.674;23.282;2022-11-11T04:37:19;25.87;;;18.77;;
6392;SDS011;3229;42.674;23.282;2022-11-11T04:40:01;22.47;;;16.63;;
6392;SDS011;3229;42.674;23.282;2022-11-11T04:42:51;22.20;;;17.53;;
6392;SDS011;3229;42.674;23.282;2022-11-11T04:45:19;23.40;;;17.70;;
6392;SDS011;3229;42.674;23.282;2022-11-11T04:47:57;23.40;;;17.23;;
6392;SDS011;3229;42.674;23.282;2022-11-11T04:50:32;23.60;;;17.50;;
6392;SDS011;3229;42.674;23.282;2022-11-11T04:53:01;20.33;;;16.50;;
6392;SDS011;3229;42.674;23.282;2022-11-11T04:55:30;23.47;;;17.60;;
6392;SDS011;3229;42.674;23.282;2022-11-11T04:58:14;24.63;;;17.63;;
6392;SDS011;3229;42.674;23.282;2022-11-11T05:00:42;22.67;;;17.87;;
6392;SDS011;3229;42.674;23.282;2022-11-11T05:03:10;23.37;;;17.43;;
6392;SDS011;3229;42.674;23.282;2022-11-11T05:05:45;21.50;;;17.87;;
6392;SDS011;3229;42.674;23.282;2022-11-11T05:08:31;20.97;;;16.43;;
6392;SDS011;3229;42.674;23.282;2022-11-11T05:11:16;21.33;;;16.77;;
6392;SDS011;3229;42.674;23.282;2022-11-11T05:13:44;21.80;;;17.27;;
6392;SDS011;3229;42.674;23.282;2022-11-11T05:16:32;24.23;;;16.57;;
6392;SDS011;3229;42.674;23.282;2022-11-11T05:19:20;23.07;;;16.73;;
6392;SDS011;3229;42.674;23.282;2022-11-11T05:22:08;22.57;;;16.67;;
6392;SDS011;3229;42.674;23.282;2022-11-11T05:24:40;21.27;;;16.40;;
6392;SDS011;3229;42.674;23.282;2022-11-11T05:27:27;21.50;;;16.93;;
6392;SDS011;3229;42.674;23.282;2022-11-11T05:29:54;19.47;;;16.23;;
6392;SDS011;3229;42.674;23.282;2022-11-11T05:32:24;22.33;;;16.77;;
6392;SDS011;3229;42.674;23.282;2022-11-11T05:34:51;20.77;;;16.10;;
6392;SDS011;3229;42.674;23.282;2022-11-11T05:37:20;20.13;;;15.77;;
6392;SDS011;3229;42.674;23.282;2022-11-11T05:39:49;21.23;;;16.80;;
6392;SDS011;3229;42.674;23.282;2022-11-11T05:42:17;20.70;;;16.23;;
6392;SDS011;3229;42.674;23.282;2022-11-11T05:44:52;19.90;;;16.20;;
6392;SDS011;3229;42.674;23.282;2022-11-11T05:47:19;19.47;;;16.27;;
6392;SDS011;3229;42.674;23.282;2022-11-11T05:49:49;23.53;;;16.03;;
6392;SDS011;3229;42.674;23.282;2022-11-11T05:52:16;20.57;;;15.90;;
6392;SDS011;3229;42.674;23.282;2022-11-11T05:54:47;21.10;;;15.67;;
6392;SDS011;3229;42.674;23.282;2022-11-11T05:57:15;20.53;;;15.73;;
6392;SDS011;3229;42.674;23.282;2022-11-11T05:59:42;18.83;;;14.40;;
6392;SDS011;3229;42.674;23.282;2022-11-11T06:02:09;23.97;;;15.43;;
6392;SDS011;3229;42.674;23.282;2022-11-11T06:04:36;19.57;;;15.47;;
6392;SDS011;3229;42.674;23.282;2022-11-11T06:07:03;20.30;;;14.77;;
6392;SDS011;3229;42.674;23.282;2022-11-11T06:09:30;19.67;;;14.83;;
6392;SDS011;3229;42.674;23.282;2022-11-11T06:11:59;20.27;;;15.93;;
6392;SDS011;3229;42.674;23.282;2022-11-11T06:14:25;19.93;;;15.90;;
6392;SDS011;3229;42.674;23.282;2022-11-11T06:16:53;21.30;;;15.90;;
6392;SDS011;3229;42.674;23.282;2022-11-11T06:19:20;21.17;;;15.80;;
6392;SDS011;3229;42.674;23.282;2022-11-11T06:21:46;21.27;;;15.60;;
6392;SDS011;3229;42.674;23.282;2022-11-11T06:24:22;20.10;;;15.87;;
6392;SDS011;3229;42.674;23.282;2022-11-11T06:26:50;20.70;;;16.17;;
6392;SDS011;3229;42.674;23.282;2022-11-11T06:29:19;20.63;;;15.60;;
6392;SDS011;3229;42.674;23.282;2022-11-11T06:31:46;19.97;;;14.93;;
6392;SDS011;3229;42.674;23.282;2022-11-11T06:34:14;20.73;;;15.20;;
6392;SDS011;3229;42.674;23.282;2022-11-11T06:36:41;23.70;;;16.00;;
6392;SDS011;3229;42.674;23.282;2022-11-11T06:39:08;19.97;;;14.73;;
6392;SDS011;3229;42.674;23.282;2022-11-11T06:41:35;19.83;;;15.30;;
6392;SDS011;3229;42.674;23.282;2022-11-11T06:44:02;21.73;;;16.13;;
6392;SDS011;3229;42.674;23.282;2022-11-11T06:46:32;22.47;;;15.17;;
6392;SDS011;3229;42.674;23.282;2022-11-11T06:49:00;24.50;;;15.70;;
6392;SDS011;3229;42.674;23.282;2022-11-11T06:51:27;19.17;;;15.13;;
6392;SDS011;3229;42.674;23.282;2022-11-11T06:53:54;21.70;;;15.93;;
6392;SDS011;3229;42.674;23.282;2022-11-11T06:56:21;20.80;;;15.03;;
6392;SDS011;3229;42.674;23.282;2022-11-11T06:58:48;18.87;;;15.83;;
6392;SDS011;3229;42.674;23.282;2022-11-11T07:01:17;18.10;;;14.73;;
6392;SDS011;3229;42.674;23.282;2022-11-11T07:03:46;23.13;;;14.90;;
6392;SDS011;3229;42.674;23.282;2022-11-11T07:06:13;20.90;;;15.00;;
6392;SDS011;3229;42.674;23.282;2022-11-11T07:08:40;18.73;;;14.47;;
6392;SDS011;3229;42.674;23.282;2022-11-11T07:11:08;18.90;;;14.73;;
6392;SDS011;3229;42.674;23.282;2022-11-11T07:13:35;19.33;;;15.10;;
6392;SDS011;3229;42.674;23.282;2022-11-11T07:16:04;20.63;;;14.17;;
6392;SDS011;3229;42.674;23.282;2022-11-11T07:18:34;20.10;;;15.03;;
6392;SDS011;3229;42.674;23.282;2022-11-11T07:21:05;18.53;;;14.50;;
6392;SDS011;3229;42.674;23.282;2022-11-11T07:23:32;20.40;;;14.87;;
6392;SDS011;3229;42.674;23.282;2022-11-11T07:25:59;18.37;;;14.23;;
6392;SDS011;3229;42.674;23.282;2022-11-11T07:28:27;17.87;;;14.43;;
6392;SDS011;3229;42.674;23.282;2022-11-11T07:30:54;21.77;;;14.40;;
6392;SDS011;3229;42.674;23.282;2022-11-11T07:33:21;16.53;;;13.67;;
6392;SDS011;3229;42.674;23.282;2022-11-11T07:35:48;17.30;;;13.50;;
6392;SDS011;3229;42.674;23.282;2022-11-11T07:38:26;17.37;;;13.07;;
6392;SDS011;3229;42.674;23.282;2022-11-11T07:40:56;20.10;;;14.77;;
6392;SDS011;3229;42.674;23.282;2022-11-11T07:43:23;17.53;;;12.93;;
6392;SDS011;3229;42.674;23.282;2022-11-11T07:45:50;18.63;;;13.40;;
6392;SDS011;3229;42.674;23.282;2022-11-11T07:48:17;17.87;;;13.33;;
6392;SDS011;3229;42.674;23.282;2022-11-11T07:50:46;17.43;;;13.33;;
6392;SDS011;3229;42.674;23.282;2022-11-11T07:53:13;19.60;;;13.17;;
6392;SDS011;3229;42.674;23.282;2022-11-11T07:55:41;16.97;;;12.80;;
6392;SDS011;3229;42.674;23.282;2022-11-11T07:58:10;17.53;;;13.20;;
6392;SDS011;3229;42.674;23.282;2022-11-11T08:00:37;25.80;;;13.87;;
6392;SDS011;3229;42.674;23.282;2022-11-11T08:03:04;17.00;;;12.63;;
6392;SDS011;3229;42.674;23.282;2022-11-11T08:05:32;18.67;;;12.07;;
6392;SDS011;3229;42.674;23.282;2022-11-11T08:08:01;17.50;;;12.67;;
6392;SDS011;3229;42.674;23.282;2022-11-11T08:10:29;14.27;;;12.00;;
6392;SDS011;3229;42.674;23.282;2022-11-11T08:12:58;13.97;;;11.67;;
6392;SDS011;3229;42.674;23.282;2022-11-11T08:15:42;20.10;;;11.53;;
6392;SDS011;3229;42.674;23.282;2022-11-11T08:18:09;17.27;;;11.80;;
6392;SDS011;3229;42.674;23.282;2022-11-11T08:20:36;18.13;;;12.00;;
6392;SDS011;3229;42.674;23.282;2022-11-11T08:23:04;15.03;;;11.40;;
6392;SDS011;3229;42.674;23.282;2022-11-11T08:25:35;16.93;;;12.03;;
6392;SDS011;3229;42.674;23.282;2022-11-11T08:28:04;15.73;;;11.30;;
6392;SDS011;3229;42.674;23.282;2022-11-11T08:30:34;13.97;;;10.63;;
6392;SDS011;3229;42.674;23.282;2022-11-11T08:33:01;16.47;;;11.83;;
6392;SDS011;3229;42.674;23.282;2022-11-11T08:35:30;14.07;;;11.20;;
6392;SDS011;3229;42.674;23.282;2022-11-11T08:37:59;15.70;;;11.03;;
6392;SDS011;3229;42.674;23.282;2022-11-11T08:40:29;12.43;;;10.53;;
6392;SDS011;3229;42.674;23.282;2022-11-11T08:42:56;15.23;;;11.40;;
6392;SDS011;3229;42.674;23.282;2022-11-11T08:45:25;14.07;;;11.17;;
6392;SDS011;3229;42.674;23.282;2022-11-11T08:47:52;15.13;;;11.20;;
6392;SDS011;3229;42.674;23.282;2022-11-11T08:50:19;11.17;;;9.80;;
6392;SDS011;3229;42.674;23.282;2022-11-11T08:52:46;14.40;;;10.47;;
6392;SDS011;3229;42.674;23.282;2022-11-11T08:55:14;12.87;;;9.50;;
6392;SDS011;3229;42.674;23.282;2022-11-11T08:57:42;12.20;;;10.17;;
6392;SDS011;3229;42.674;23.282;2022-11-11T09:00:09;11.33;;;9.87;;
6392;SDS011;3229;42.674;23.282;2022-11-11T09:02:39;13.17;;;10.30;;
6392;SDS011;3229;42.674;23.282;2022-11-11T09:05:06;13.97;;;10.30;;
6392;SDS011;3229;42.674;23.282;2022-11-11T09:07:33;11.07;;;9.57;;
6392;SDS011;3229;42.674;23.282;2022-11-11T09:10:00;13.20;;;10.20;;
6392;SDS011;3229;42.674;23.282;2022-11-11T09:12:27;12.93;;;9.53;;
6392;SDS011;3229;42.674;23.282;2022-11-11T09:14:54;13.83;;;9.60;;
6392;SDS011;3229;42.674;23.282;2022-11-11T09:17:20;11.20;;;9.17;;
6392;SDS011;3229;42.674;23.282;2022-11-11T09:19:49;11.30;;;9.87;;
6392;SDS011;3229;42.674;23.282;2022-11-11T09:22:16;13.87;;;9.83;;
6392;SDS011;3229;42.674;23.282;2022-11-11T09:24:42;10.90;;;9.37;;
6392;SDS011;3229;42.674;23.282;2022-11-11T09:27:09;12.83;;;9.27;;
6392;SDS011;3229;42.674;23.282;2022-11-11T09:29:37;11.30;;;8.90;;
6392;SDS011;3229;42.674;23.282;2022-11-11T09:32:04;13.97;;;9.43;;
6392;SDS011;3229;42.674;23.282;2022-11-11T09:34:31;11.20;;;9.07;;
6392;SDS011;3229;42.674;23.282;2022-11-11T09:36:59;13.03;;;9.03;;
6392;SDS011;3229;42.674;23.282;2022-11-11T09:39:26;9.50;;;8.47;;
6392;SDS011;3229;42.674;23.282;2022-11-11T09:41:53;13.40;;;9.53;;
6392;SDS011;3229;42.674;23.282;2022-11-11T09:44:33;10.07;;;8.43;;
6392;SDS011;3229;42.674;23.282;2022-11-11T09:47:13;10.60;;;8.37;;
6392;SDS011;3229;42.674;23.282;2022-11-11T09:49:50;10.77;;;8.67;;
6392;SDS011;3229;42.674;23.282;2022-11-11T09:52:26;9.70;;;7.63;;
6392;SDS011;3229;42.674;23.282;2022-11-11T09:54:58;10.53;;;7.83;;
6392;SDS011;3229;42.674;23.282;2022-11-11T09:57:31;9.83;;;7.70;;
6392;SDS011;3229;42.674;23.282;2022-11-11T10:00:03;10.37;;;8.27;;
6392;SDS011;3229;42.674;23.282;2022-11-11T10:02:34;9.90;;;7.97;;
6392;SDS011;3229;42.674;23.282;2022-11-11T10:05:07;8.90;;;7.87;;
6392;SDS011;3229;42.674;23.282;2022-11-11T10:07:47;8.93;;;7.97;;
6392;SDS011;3229;42.674;23.282;2022-11-11T10:10:22;9.63;;;7.47;;
6392;SDS011;3229;42.674;23.282;2022-11-11T10:12:56;8.43;;;7.23;;
6392;SDS011;3229;42.674;23.282;2022-11-11T10:15:25;8.93;;;7.50;;
6392;SDS011;3229;42.674;23.282;2022-11-11T10:18:07;7.97;;;7.13;;
6392;SDS011;3229;42.674;23.282;2022-11-11T10:20:44;11.57;;;7.63;;
6392;SDS011;3229;42.674;23.282;2022-11-11T10:23:20;9.30;;;7.50;;
6392;SDS011;3229;42.674;23.282;2022-11-11T10:25:52;8.93;;;6.90;;
6392;SDS011;3229;42.674;23.282;2022-11-11T10:28:21;10.33;;;7.47;;
6392;SDS011;3229;42.674;23.282;2022-11-11T10:30:55;13.03;;;8.17;;
6392;SDS011;3229;42.674;23.282;2022-11-11T10:33:24;8.97;;;7.17;;
6392;SDS011;3229;42.674;23.282;2022-11-11T10:35:54;8.23;;;7.43;;
6392;SDS011;3229;42.674;23.282;2022-11-11T10:38:32;9.77;;;7.77;;
6392;SDS011;3229;42.674;23.282;2022-11-11T10:41:10;8.17;;;7.37;;
6392;SDS011;3229;42.674;23.282;2022-11-11T10:43:39;8.63;;;7.73;;
6392;SDS011;3229;42.674;23.282;2022-11-11T10:46:12;7.70;;;6.90;;
6392;SDS011;3229;42.674;23.282;2022-11-11T10:48:45;8.07;;;7.17;;
6392;SDS011;3229;42.674;23.282;2022-11-11T10:51:20;8.20;;;6.57;;
6392;SDS011;3229;42.674;23.282;2022-11-11T10:53:52;8.37;;;7.10;;
6392;SDS011;3229;42.674;23.282;2022-11-11T10:56:28;7.63;;;6.43;;
6392;SDS011;3229;42.674;23.282;2022-11-11T10:59:04;7.63;;;6.87;;
6392;SDS011;3229;42.674;23.282;2022-11-11T11:01:41;9.60;;;6.70;;
6392;SDS011;3229;42.674;23.282;2022-11-11T11:04:15;7.47;;;6.70;;
6392;SDS011;3229;42.674;23.282;2022-11-11T11:06:49;7.23;;;6.47;;
6392;SDS011;3229;42.674;23.282;2022-11-11T11:09:25;7.73;;;6.93;;
6392;SDS011;3229;42.674;23.282;2022-11-11T11:11:57;7.03;;;6.33;;
6392;SDS011;3229;42.674;23.282;2022-11-11T11:14:31;7.60;;;6.83;;
6392;SDS011;3229;42.674;23.282;2022-11-11T11:17:09;9.37;;;5.97;;
6392;SDS011;3229;42.674;23.282;2022-11-11T11:20:10;8.07;;;6.17;;
6392;SDS011;3229;42.674;23.282;2022-11-11T11:22:54;6.67;;;6.07;;
6392;SDS011;3229;42.674;23.282;2022-11-11T11:25:27;7.77;;;6.30;;
6392;SDS011;3229;42.674;23.282;2022-11-11T11:28:08;7.80;;;6.50;;
6392;SDS011;3229;42.674;23.282;2022-11-11T11:30:37;6.90;;;6.17;;
6392;SDS011;3229;42.674;23.282;2022-11-11T11:33:24;6.73;;;6.03;;
6392;SDS011;3229;42.674;23.282;2022-11-11T11:35:54;10.77;;;6.90;;
6392;SDS011;3229;42.674;23.282;2022-11-11T11:38:24;6.67;;;6.03;;
6392;SDS011;3229;42.674;23.282;2022-11-11T11:41:07;7.60;;;6.27;;
6392;SDS011;3229;42.674;23.282;2022-11-11T11:43:40;6.30;;;5.73;;
6392;SDS011;3229;42.674;23.282;2022-11-11T11:46:30;6.80;;;6.10;;
6392;SDS011;3229;42.674;23.282;2022-11-11T11:49:07;6.43;;;5.80;;
6392;SDS011;3229;42.674;23.282;2022-11-11T11:51:48;8.17;;;5.37;;
6392;SDS011;3229;42.674;23.282;2022-11-11T11:54:47;6.77;;;5.60;;
6392;SDS011;3229;42.674;23.282;2022-11-11T11:57:26;6.30;;;5.43;;
6392;SDS011;3229;42.674;23.282;2022-11-11T12:00:12;6.00;;;5.40;;
6392;SDS011;3229;42.674;23.282;2022-11-11T12:02:58;9.83;;;5.63;;
6392;SDS011;3229;42.674;23.282;2022-11-11T12:05:39;6.93;;;5.73;;
6392;SDS011;3229;42.674;23.282;2022-11-11T12:08:25;7.50;;;6.23;;
6392;SDS011;3229;42.674;23.282;2022-11-11T12:11:05;6.47;;;5.03;;
6392;SDS011;3229;42.674;23.282;2022-11-11T12:13:44;6.33;;;5.63;;
6392;SDS011;3229;42.674;23.282;2022-11-11T12:16:32;6.63;;;5.23;;
6392;SDS011;3229;42.674;23.282;2022-11-11T12:19:17;6.10;;;5.50;;
6392;SDS011;3229;42.674;23.282;2022-11-11T12:22:03;6.27;;;5.60;;
6392;SDS011;3229;42.674;23.282;2022-11-11T12:24:38;5.10;;;4.57;;
6392;SDS011;3229;42.674;23.282;2022-11-11T12:27:17;5.90;;;5.37;;
6392;SDS011;3229;42.674;23.282;2022-11-11T12:29:59;6.53;;;5.17;;
6392;SDS011;3229;42.674;23.282;2022-11-11T12:35:36;5.43;;;4.93;;
6392;SDS011;3229;42.674;23.282;2022-11-11T12:38:24;5.77;;;5.17;;
6392;SDS011;3229;42.674;23.282;2022-11-11T12:41:09;5.43;;;4.93;;
6392;SDS011;3229;42.674;23.282;2022-11-11T12:43:50;5.50;;;5.00;;
6392;SDS011;3229;42.674;23.282;2022-11-11T12:46:31;7.07;;;5.43;;
6392;SDS011;3229;42.674;23.282;2022-11-11T12:49:14;5.60;;;5.10;;
6392;SDS011;3229;42.674;23.282;2022-11-11T12:52:04;5.37;;;4.83;;
6392;SDS011;3229;42.674;23.282;2022-11-11T12:54:47;5.63;;;4.70;;
6392;SDS011;3229;42.674;23.282;2022-11-11T12:57:25;6.97;;;4.87;;
6392;SDS011;3229;42.674;23.282;2022-11-11T12:59:59;8.17;;;5.07;;
6392;SDS011;3229;42.674;23.282;2022-11-11T13:05:42;5.73;;;4.43;;
6392;SDS011;3229;42.674;23.282;2022-11-11T13:11:26;6.23;;;5.50;;
6392;SDS011;3229;42.674;23.282;2022-11-11T13:14:06;6.80;;;5.40;;
6392;SDS011;3229;42.674;23.282;2022-11-11T13:16:44;6.33;;;5.60;;
6392;SDS011;3229;42.674;23.282;2022-11-11T13:19:18;5.97;;;5.37;;
6392;SDS011;3229;42.674;23.282;2022-11-11T13:21:51;8.30;;;5.10;;
6392;SDS011;3229;42.674;23.282;2022-11-11T13:24:21;7.17;;;5.60;;
6392;SDS011;3229;42.674;23.282;2022-11-11T13:26:53;7.67;;;5.80;;
6392;SDS011;3229;42.674;23.282;2022-11-11T13:32:41;6.53;;;5.13;;
6392;SDS011;3229;42.674;23.282;2022-11-11T13:35:17;6.07;;;4.90;;
6392;SDS011;3229;42.674;23.282;2022-11-11T13:37:48;7.80;;;5.50;;
6392;SDS011;3229;42.674;23.282;2022-11-11T13:40:35;6.60;;;5.33;;
6392;SDS011;3229;42.674;23.282;2022-11-11T13:43:17;6.00;;;4.77;;
6392;SDS011;3229;42.674;23.282;2022-11-11T13:45:50;6.50;;;5.27;;
6392;SDS011;3229;42.674;23.282;2022-11-11T13:51:23;6.13;;;5.27;;
6392;SDS011;3229;42.674;23.282;2022-11-11T13:53:52;6.90;;;5.83;;
6392;SDS011;3229;42.674;23.282;2022-11-11T13:56:25;6.23;;;5.60;;
6392;SDS011;3229;42.674;23.282;2022-11-11T13:58:58;6.53;;;5.40;;
6392;SDS011;3229;42.674;23.282;2022-11-11T14:01:31;7.33;;;5.60;;
6392;SDS011;3229;42.674;23.282;2022-11-11T14:04:05;6.53;;;5.23;;
6392;SDS011;3229;42.674;23.282;2022-11-11T14:12:40;6.37;;;5.47;;
6392;SDS011;3229;42.674;23.282;2022-11-11T14:18:05;8.47;;;6.07;;
6392;SDS011;3229;42.674;23.282;2022-11-11T14:20:57;7.07;;;5.97;;
6392;SDS011;3229;42.674;23.282;2022-11-11T14:23:35;8.03;;;5.63;;
6392;SDS011;3229;42.674;23.282;2022-11-11T14:28:51;7.57;;;5.57;;
6392;SDS011;3229;42.674;23.282;2022-11-11T14:31:36;9.87;;;6.03;;
6392;SDS011;3229;42.674;23.282;2022-11-11T14:34:16;6.70;;;6.00;;
6392;SDS011;3229;42.674;23.282;2022-11-11T14:36:55;7.73;;;6.50;;
6392;SDS011;3229;42.674;23.282;2022-11-11T14:39:32;6.60;;;5.77;;
6392;SDS011;3229;42.674;23.282;2022-11-11T14:42:40;8.27;;;7.13;;
6392;SDS011;3229;42.674;23.282;2022-11-11T14:51:44;10.30;;;6.93;;
6392;SDS011;3229;42.674;23.282;2022-11-11T14:57:17;13.30;;;7.03;;
6392;SDS011;3229;42.674;23.282;2022-11-11T14:59:46;9.93;;;7.67;;
6392;SDS011;3229;42.674;23.282;2022-11-11T15:02:21;11.70;;;7.63;;
6392;SDS011;3229;42.674;23.282;2022-11-11T15:04:51;9.23;;;7.07;;
6392;SDS011;3229;42.674;23.282;2022-11-11T15:07:21;14.93;;;8.43;;
6392;SDS011;3229;42.674;23.282;2022-11-11T15:10:12;10.87;;;8.13;;
6392;SDS011;3229;42.674;23.282;2022-11-11T15:15:40;11.37;;;8.00;;
6392;SDS011;3229;42.674;23.282;2022-11-11T15:18:16;10.43;;;7.97;;
6392;SDS011;3229;42.674;23.282;2022-11-11T15:21:08;10.40;;;8.03;;
6392;SDS011;3229;42.674;23.282;2022-11-11T15:23:46;13.70;;;8.97;;
6392;SDS011;3229;42.674;23.282;2022-11-11T15:26:28;13.20;;;8.43;;
6392;SDS011;3229;42.674;23.282;2022-11-11T15:29:04;14.03;;;8.90;;
6392;SDS011;3229;42.674;23.282;2022-11-11T15:31:48;12.20;;;8.40;;
6392;SDS011;3229;42.674;23.282;2022-11-11T15:34:24;10.87;;;8.33;;
6392;SDS011;3229;42.674;23.282;2022-11-11T15:37:01;12.43;;;8.30;;
6392;SDS011;3229;42.674;23.282;2022-11-11T15:39:35;12.37;;;8.37;;
6392;SDS011;3229;42.674;23.282;2022-11-11T15:42:22;11.97;;;8.57;;
6392;SDS011;3229;42.674;23.282;2022-11-11T15:45:18;14.30;;;8.90;;
6392;SDS011;3229;42.674;23.282;2022-11-11T15:48:01;11.87;;;8.67;;
6392;SDS011;3229;42.674;23.282;2022-11-11T15:50:30;11.13;;;8.90;;
6392;SDS011;3229;42.674;23.282;2022-11-11T15:53:04;12.50;;;9.63;;
6392;SDS011;3229;42.674;23.282;2022-11-11T15:55:51;12.27;;;8.97;;
6392;SDS011;3229;42.674;23.282;2022-11-11T15:58:23;14.33;;;9.00;;